sensor_id;sensor_type;location;lat;lon;timestamp;P1;durP1;ratioP1;P2;durP2;ratioP2
13026;SDS011;6580;42.680;23.324;2023-09-12T00:01:48;4.03;;;3.08;;
13026;SDS011;6580;42.680;23.324;2023-09-12T00:04:35;3.38;;;2.70;;
13026;SDS011;6580;42.680;23.324;2023-09-12T00:07:21;4.38;;;2.65;;
13026;SDS011;6580;42.680;23.324;2023-09-12T00:10:06;2.92;;;2.60;;
13026;SDS011;6580;42.680;23.324;2023-09-12T00:12:53;2.60;;;2.40;;
13026;SDS011;6580;42.680;23.324;2023-09-12T00:15:40;4.45;;;2.70;;
13026;SDS011;6580;42.680;23.324;2023-09-12T00:18:25;2.95;;;2.45;;
13026;SDS011;6580;42.680;23.324;2023-09-12T00:21:13;3.05;;;2.75;;
13026;SDS011;6580;42.680;23.324;2023-09-12T00:23:59;3.10;;;2.60;;
13026;SDS011;6580;42.680;23.324;2023-09-12T00:26:46;3.20;;;2.70;;
13026;SDS011;6580;42.680;23.324;2023-09-12T00:29:32;7.03;;;2.55;;
13026;SDS011;6580;42.680;23.324;2023-09-12T00:32:20;3.65;;;2.78;;
13026;SDS011;6580;42.680;23.324;2023-09-12T00:35:08;4.55;;;3.13;;
13026;SDS011;6580;42.680;23.324;2023-09-12T00:38:01;3.88;;;2.72;;
13026;SDS011;6580;42.680;23.324;2023-09-12T00:40:47;3.90;;;2.80;;
13026;SDS011;6580;42.680;23.324;2023-09-12T00:43:33;2.80;;;2.60;;
13026;SDS011;6580;42.680;23.324;2023-09-12T00:46:18;3.17;;;2.60;;
13026;SDS011;6580;42.680;23.324;2023-09-12T00:49:06;3.08;;;2.47;;
13026;SDS011;6580;42.680;23.324;2023-09-12T00:51:53;3.25;;;2.58;;
13026;SDS011;6580;42.680;23.324;2023-09-12T00:54:44;5.15;;;2.90;;
13026;SDS011;6580;42.680;23.324;2023-09-12T00:57:30;3.88;;;3.00;;
13026;SDS011;6580;42.680;23.324;2023-09-12T01:00:18;4.22;;;3.28;;
13026;SDS011;6580;42.680;23.324;2023-09-12T01:03:06;3.20;;;2.60;;
13026;SDS011;6580;42.680;23.324;2023-09-12T01:05:52;5.32;;;3.30;;
13026;SDS011;6580;42.680;23.324;2023-09-12T01:08:37;4.23;;;3.27;;
13026;SDS011;6580;42.680;23.324;2023-09-12T01:11:24;4.15;;;2.95;;
13026;SDS011;6580;42.680;23.324;2023-09-12T01:14:11;4.07;;;3.13;;
13026;SDS011;6580;42.680;23.324;2023-09-12T01:16:56;5.05;;;2.80;;
13026;SDS011;6580;42.680;23.324;2023-09-12T01:19:43;4.10;;;2.75;;
13026;SDS011;6580;42.680;23.324;2023-09-12T01:29:09;3.97;;;3.17;;
13026;SDS011;6580;42.680;23.324;2023-09-12T01:32:05;4.05;;;3.10;;
13026;SDS011;6580;42.680;23.324;2023-09-12T01:34:51;4.45;;;3.13;;
13026;SDS011;6580;42.680;23.324;2023-09-12T01:37:37;4.35;;;3.17;;
13026;SDS011;6580;42.680;23.324;2023-09-12T01:40:24;3.80;;;3.50;;
13026;SDS011;6580;42.680;23.324;2023-09-12T01:43:19;4.57;;;3.50;;
13026;SDS011;6580;42.680;23.324;2023-09-12T01:46:07;5.50;;;3.50;;
13026;SDS011;6580;42.680;23.324;2023-09-12T01:48:54;4.10;;;3.00;;
13026;SDS011;6580;42.680;23.324;2023-09-12T01:51:41;3.22;;;2.85;;
13026;SDS011;6580;42.680;23.324;2023-09-12T01:54:27;4.47;;;2.92;;
13026;SDS011;6580;42.680;23.324;2023-09-12T01:57:13;3.42;;;3.10;;
13026;SDS011;6580;42.680;23.324;2023-09-12T01:59:59;5.00;;;3.23;;
13026;SDS011;6580;42.680;23.324;2023-09-12T02:02:48;4.47;;;3.22;;
13026;SDS011;6580;42.680;23.324;2023-09-12T02:05:34;3.25;;;3.00;;
13026;SDS011;6580;42.680;23.324;2023-09-12T02:08:20;3.67;;;3.13;;
13026;SDS011;6580;42.680;23.324;2023-09-12T02:11:06;4.37;;;3.20;;
13026;SDS011;6580;42.680;23.324;2023-09-12T02:13:51;5.90;;;3.43;;
13026;SDS011;6580;42.680;23.324;2023-09-12T02:16:38;4.10;;;3.67;;
13026;SDS011;6580;42.680;23.324;2023-09-12T02:19:25;6.37;;;3.60;;
13026;SDS011;6580;42.680;23.324;2023-09-12T02:22:11;5.20;;;3.60;;
13026;SDS011;6580;42.680;23.324;2023-09-12T02:24:56;3.30;;;3.00;;
13026;SDS011;6580;42.680;23.324;2023-09-12T02:27:42;4.17;;;3.57;;
13026;SDS011;6580;42.680;23.324;2023-09-12T02:30:27;4.90;;;3.42;;
13026;SDS011;6580;42.680;23.324;2023-09-12T02:33:14;4.20;;;3.47;;
13026;SDS011;6580;42.680;23.324;2023-09-12T02:36:03;4.03;;;3.40;;
13026;SDS011;6580;42.680;23.324;2023-09-12T02:38:52;5.30;;;3.80;;
13026;SDS011;6580;42.680;23.324;2023-09-12T02:41:39;4.90;;;3.90;;
13026;SDS011;6580;42.680;23.324;2023-09-12T02:44:27;6.27;;;3.67;;
13026;SDS011;6580;42.680;23.324;2023-09-12T02:47:13;4.45;;;3.88;;
13026;SDS011;6580;42.680;23.324;2023-09-12T02:50:06;4.60;;;3.73;;
13026;SDS011;6580;42.680;23.324;2023-09-12T02:52:55;4.13;;;3.72;;
13026;SDS011;6580;42.680;23.324;2023-09-12T02:55:41;4.30;;;3.40;;
13026;SDS011;6580;42.680;23.324;2023-09-12T02:58:28;4.13;;;3.80;;
13026;SDS011;6580;42.680;23.324;2023-09-12T03:01:14;4.38;;;3.60;;
13026;SDS011;6580;42.680;23.324;2023-09-12T03:04:03;4.47;;;4.07;;
13026;SDS011;6580;42.680;23.324;2023-09-12T03:06:49;4.70;;;3.90;;
13026;SDS011;6580;42.680;23.324;2023-09-12T03:09:36;7.50;;;4.13;;
13026;SDS011;6580;42.680;23.324;2023-09-12T03:12:22;4.57;;;4.18;;
13026;SDS011;6580;42.680;23.324;2023-09-12T03:15:11;4.90;;;4.10;;
13026;SDS011;6580;42.680;23.324;2023-09-12T03:17:58;4.43;;;3.90;;
13026;SDS011;6580;42.680;23.324;2023-09-12T03:20:43;4.72;;;4.07;;
13026;SDS011;6580;42.680;23.324;2023-09-12T03:23:30;5.50;;;4.00;;
13026;SDS011;6580;42.680;23.324;2023-09-12T03:26:18;4.43;;;3.80;;
13026;SDS011;6580;42.680;23.324;2023-09-12T03:29:03;4.97;;;3.73;;
13026;SDS011;6580;42.680;23.324;2023-09-12T03:31:49;4.93;;;4.50;;
13026;SDS011;6580;42.680;23.324;2023-09-12T03:34:35;6.27;;;4.67;;
13026;SDS011;6580;42.680;23.324;2023-09-12T03:37:22;5.22;;;4.00;;
13026;SDS011;6580;42.680;23.324;2023-09-12T03:40:11;4.33;;;3.90;;
13026;SDS011;6580;42.680;23.324;2023-09-12T03:43:00;6.37;;;3.90;;
13026;SDS011;6580;42.680;23.324;2023-09-12T03:45:45;5.72;;;4.40;;
13026;SDS011;6580;42.680;23.324;2023-09-12T03:48:31;5.87;;;3.73;;
13026;SDS011;6580;42.680;23.324;2023-09-12T03:51:16;4.50;;;4.10;;
13026;SDS011;6580;42.680;23.324;2023-09-12T03:54:02;8.60;;;4.53;;
13026;SDS011;6580;42.680;23.324;2023-09-12T03:56:48;5.03;;;4.50;;
13026;SDS011;6580;42.680;23.324;2023-09-12T03:59:35;7.87;;;4.63;;
13026;SDS011;6580;42.680;23.324;2023-09-12T04:02:22;7.43;;;5.27;;
13026;SDS011;6580;42.680;23.324;2023-09-12T04:05:08;9.23;;;5.37;;
13026;SDS011;6580;42.680;23.324;2023-09-12T04:07:54;7.53;;;5.00;;
13026;SDS011;6580;42.680;23.324;2023-09-12T04:10:39;7.07;;;4.93;;
13026;SDS011;6580;42.680;23.324;2023-09-12T04:13:25;7.63;;;5.00;;
13026;SDS011;6580;42.680;23.324;2023-09-12T04:16:12;8.63;;;5.53;;
13026;SDS011;6580;42.680;23.324;2023-09-12T04:19:00;6.10;;;4.60;;
13026;SDS011;6580;42.680;23.324;2023-09-12T04:21:49;4.67;;;4.10;;
13026;SDS011;6580;42.680;23.324;2023-09-12T04:24:35;7.90;;;5.47;;
13026;SDS011;6580;42.680;23.324;2023-09-12T04:27:28;7.20;;;4.77;;
13026;SDS011;6580;42.680;23.324;2023-09-12T04:30:14;5.50;;;4.43;;
13026;SDS011;6580;42.680;23.324;2023-09-12T04:33:02;8.17;;;5.00;;
13026;SDS011;6580;42.680;23.324;2023-09-12T04:35:47;4.70;;;4.20;;
13026;SDS011;6580;42.680;23.324;2023-09-12T04:38:33;7.40;;;5.70;;
13026;SDS011;6580;42.680;23.324;2023-09-12T04:41:18;5.80;;;4.53;;
13026;SDS011;6580;42.680;23.324;2023-09-12T04:44:04;7.07;;;4.90;;
13026;SDS011;6580;42.680;23.324;2023-09-12T04:46:50;4.70;;;4.25;;
13026;SDS011;6580;42.680;23.324;2023-09-12T04:49:40;5.30;;;4.80;;
13026;SDS011;6580;42.680;23.324;2023-09-12T04:52:27;6.32;;;4.90;;
13026;SDS011;6580;42.680;23.324;2023-09-12T04:55:12;7.45;;;4.60;;
13026;SDS011;6580;42.680;23.324;2023-09-12T04:57:58;6.43;;;4.50;;
13026;SDS011;6580;42.680;23.324;2023-09-12T05:00:45;7.65;;;4.93;;
13026;SDS011;6580;42.680;23.324;2023-09-12T05:03:33;4.80;;;4.25;;
13026;SDS011;6580;42.680;23.324;2023-09-12T05:06:22;5.18;;;4.40;;
13026;SDS011;6580;42.680;23.324;2023-09-12T05:09:08;5.75;;;4.35;;
13026;SDS011;6580;42.680;23.324;2023-09-12T05:11:54;6.85;;;4.65;;
13026;SDS011;6580;42.680;23.324;2023-09-12T05:14:40;6.43;;;5.00;;
13026;SDS011;6580;42.680;23.324;2023-09-12T05:17:25;6.47;;;4.90;;
13026;SDS011;6580;42.680;23.324;2023-09-12T05:20:12;8.77;;;5.30;;
13026;SDS011;6580;42.680;23.324;2023-09-12T05:23:00;5.35;;;4.40;;
13026;SDS011;6580;42.680;23.324;2023-09-12T05:25:45;6.53;;;4.45;;
13026;SDS011;6580;42.680;23.324;2023-09-12T05:28:31;7.95;;;4.53;;
13026;SDS011;6580;42.680;23.324;2023-09-12T05:31:17;8.43;;;4.75;;
13026;SDS011;6580;42.680;23.324;2023-09-12T05:34:04;6.75;;;4.53;;
13026;SDS011;6580;42.680;23.324;2023-09-12T05:36:50;6.40;;;4.85;;
13026;SDS011;6580;42.680;23.324;2023-09-12T05:39:37;5.72;;;4.38;;
13026;SDS011;6580;42.680;23.324;2023-09-12T05:42:23;7.80;;;4.55;;
13026;SDS011;6580;42.680;23.324;2023-09-12T05:45:09;6.00;;;4.68;;
13026;SDS011;6580;42.680;23.324;2023-09-12T05:47:55;7.57;;;5.10;;
13026;SDS011;6580;42.680;23.324;2023-09-12T05:50:41;8.20;;;5.32;;
13026;SDS011;6580;42.680;23.324;2023-09-12T05:53:26;9.52;;;5.25;;
13026;SDS011;6580;42.680;23.324;2023-09-12T05:56:13;7.35;;;5.32;;
13026;SDS011;6580;42.680;23.324;2023-09-12T05:58:59;7.82;;;5.38;;
13026;SDS011;6580;42.680;23.324;2023-09-12T06:01:44;8.20;;;6.05;;
13026;SDS011;6580;42.680;23.324;2023-09-12T06:04:30;6.63;;;5.50;;
13026;SDS011;6580;42.680;23.324;2023-09-12T06:07:15;8.07;;;5.65;;
13026;SDS011;6580;42.680;23.324;2023-09-12T06:10:01;7.15;;;5.65;;
13026;SDS011;6580;42.680;23.324;2023-09-12T06:12:49;8.60;;;6.15;;
13026;SDS011;6580;42.680;23.324;2023-09-12T06:15:34;6.97;;;5.47;;
13026;SDS011;6580;42.680;23.324;2023-09-12T06:18:20;6.57;;;4.93;;
13026;SDS011;6580;42.680;23.324;2023-09-12T06:21:05;5.70;;;4.65;;
13026;SDS011;6580;42.680;23.324;2023-09-12T06:24:07;5.63;;;4.60;;
13026;SDS011;6580;42.680;23.324;2023-09-12T06:26:55;6.07;;;4.45;;
13026;SDS011;6580;42.680;23.324;2023-09-12T06:29:42;7.78;;;4.45;;
13026;SDS011;6580;42.680;23.324;2023-09-12T06:32:30;6.18;;;4.20;;
13026;SDS011;6580;42.680;23.324;2023-09-12T06:35:15;5.15;;;4.30;;
13026;SDS011;6580;42.680;23.324;2023-09-12T06:38:01;5.88;;;4.30;;
13026;SDS011;6580;42.680;23.324;2023-09-12T06:40:47;7.25;;;4.63;;
13026;SDS011;6580;42.680;23.324;2023-09-12T06:43:35;5.40;;;4.65;;
13026;SDS011;6580;42.680;23.324;2023-09-12T06:46:23;4.82;;;4.43;;
13026;SDS011;6580;42.680;23.324;2023-09-12T06:49:09;6.38;;;4.65;;
13026;SDS011;6580;42.680;23.324;2023-09-12T06:51:55;4.53;;;4.00;;
13026;SDS011;6580;42.680;23.324;2023-09-12T06:54:41;5.18;;;4.53;;
13026;SDS011;6580;42.680;23.324;2023-09-12T06:57:27;5.20;;;4.45;;
13026;SDS011;6580;42.680;23.324;2023-09-12T07:00:13;5.20;;;4.65;;
13026;SDS011;6580;42.680;23.324;2023-09-12T07:03:02;6.07;;;4.43;;
13026;SDS011;6580;42.680;23.324;2023-09-12T07:05:49;5.60;;;4.70;;
13026;SDS011;6580;42.680;23.324;2023-09-12T07:08:34;7.78;;;4.70;;
13026;SDS011;6580;42.680;23.324;2023-09-12T07:11:23;5.18;;;4.63;;
13026;SDS011;6580;42.680;23.324;2023-09-12T07:14:08;5.85;;;5.10;;
13026;SDS011;6580;42.680;23.324;2023-09-12T07:16:54;5.85;;;4.30;;
13026;SDS011;6580;42.680;23.324;2023-09-12T07:19:41;5.13;;;4.22;;
13026;SDS011;6580;42.680;23.324;2023-09-12T07:22:28;5.55;;;4.40;;
13026;SDS011;6580;42.680;23.324;2023-09-12T07:25:13;5.88;;;4.68;;
13026;SDS011;6580;42.680;23.324;2023-09-12T07:28:00;4.97;;;4.47;;
13026;SDS011;6580;42.680;23.324;2023-09-12T07:30:47;3.92;;;3.60;;
13026;SDS011;6580;42.680;23.324;2023-09-12T07:33:33;6.35;;;4.50;;
13026;SDS011;6580;42.680;23.324;2023-09-12T07:36:20;4.75;;;4.25;;
13026;SDS011;6580;42.680;23.324;2023-09-12T07:39:06;5.32;;;4.20;;
13026;SDS011;6580;42.680;23.324;2023-09-12T07:41:52;5.13;;;4.50;;
13026;SDS011;6580;42.680;23.324;2023-09-12T07:44:37;6.55;;;4.45;;
13026;SDS011;6580;42.680;23.324;2023-09-12T07:47:23;4.57;;;4.10;;
13026;SDS011;6580;42.680;23.324;2023-09-12T07:50:10;4.85;;;4.35;;
13026;SDS011;6580;42.680;23.324;2023-09-12T07:52:56;6.38;;;4.32;;
13026;SDS011;6580;42.680;23.324;2023-09-12T07:55:43;5.28;;;3.67;;
13026;SDS011;6580;42.680;23.324;2023-09-12T07:58:30;4.55;;;4.03;;
13026;SDS011;6580;42.680;23.324;2023-09-12T08:01:18;5.57;;;4.40;;
13026;SDS011;6580;42.680;23.324;2023-09-12T08:04:03;4.35;;;3.90;;
13026;SDS011;6580;42.680;23.324;2023-09-12T08:06:50;5.15;;;4.20;;
13026;SDS011;6580;42.680;23.324;2023-09-12T08:09:53;5.75;;;4.00;;
13026;SDS011;6580;42.680;23.324;2023-09-12T08:12:44;7.07;;;5.38;;
13026;SDS011;6580;42.680;23.324;2023-09-12T08:15:33;9.57;;;6.40;;
13026;SDS011;6580;42.680;23.324;2023-09-12T08:18:25;5.85;;;5.25;;
13026;SDS011;6580;42.680;23.324;2023-09-12T08:21:11;5.82;;;4.47;;
13026;SDS011;6580;42.680;23.324;2023-09-12T08:23:57;4.80;;;4.18;;
13026;SDS011;6580;42.680;23.324;2023-09-12T08:26:47;15.65;;;12.63;;
13026;SDS011;6580;42.680;23.324;2023-09-12T08:29:33;10.35;;;6.53;;
13026;SDS011;6580;42.680;23.324;2023-09-12T08:32:19;6.70;;;4.80;;
13026;SDS011;6580;42.680;23.324;2023-09-12T08:35:05;6.18;;;3.53;;
13026;SDS011;6580;42.680;23.324;2023-09-12T08:37:51;5.85;;;4.28;;
13026;SDS011;6580;42.680;23.324;2023-09-12T08:40:36;10.38;;;8.80;;
13026;SDS011;6580;42.680;23.324;2023-09-12T08:43:23;7.10;;;3.97;;
13026;SDS011;6580;42.680;23.324;2023-09-12T08:46:09;6.45;;;3.83;;
13026;SDS011;6580;42.680;23.324;2023-09-12T08:48:57;5.18;;;3.85;;
13026;SDS011;6580;42.680;23.324;2023-09-12T08:51:44;5.40;;;3.70;;
13026;SDS011;6580;42.680;23.324;2023-09-12T08:54:34;5.10;;;3.50;;
13026;SDS011;6580;42.680;23.324;2023-09-12T08:57:19;3.45;;;3.10;;
13026;SDS011;6580;42.680;23.324;2023-09-12T09:00:08;5.25;;;3.60;;
13026;SDS011;6580;42.680;23.324;2023-09-12T09:02:56;4.93;;;3.33;;
13026;SDS011;6580;42.680;23.324;2023-09-12T09:05:43;3.90;;;3.10;;
13026;SDS011;6580;42.680;23.324;2023-09-12T09:08:30;4.50;;;3.08;;
13026;SDS011;6580;42.680;23.324;2023-09-12T09:11:17;3.60;;;3.20;;
13026;SDS011;6580;42.680;23.324;2023-09-12T09:14:02;5.30;;;3.40;;
13026;SDS011;6580;42.680;23.324;2023-09-12T09:16:50;4.88;;;3.70;;
13026;SDS011;6580;42.680;23.324;2023-09-12T09:19:44;3.95;;;3.55;;
13026;SDS011;6580;42.680;23.324;2023-09-12T09:22:31;4.25;;;3.28;;
13026;SDS011;6580;42.680;23.324;2023-09-12T09:25:17;4.38;;;3.25;;
13026;SDS011;6580;42.680;23.324;2023-09-12T09:28:03;3.50;;;2.80;;
13026;SDS011;6580;42.680;23.324;2023-09-12T09:30:50;3.63;;;3.03;;
13026;SDS011;6580;42.680;23.324;2023-09-12T09:33:40;4.55;;;3.10;;
13026;SDS011;6580;42.680;23.324;2023-09-12T09:36:32;6.00;;;3.92;;
13026;SDS011;6580;42.680;23.324;2023-09-12T09:39:20;4.35;;;2.83;;
13026;SDS011;6580;42.680;23.324;2023-09-12T09:42:09;4.95;;;3.00;;
13026;SDS011;6580;42.680;23.324;2023-09-12T09:44:55;6.15;;;3.35;;
13026;SDS011;6580;42.680;23.324;2023-09-12T09:47:42;8.70;;;6.68;;
13026;SDS011;6580;42.680;23.324;2023-09-12T09:50:30;5.40;;;4.13;;
13026;SDS011;6580;42.680;23.324;2023-09-12T09:53:17;6.53;;;4.45;;
13026;SDS011;6580;42.680;23.324;2023-09-12T09:56:09;4.20;;;3.22;;
13026;SDS011;6580;42.680;23.324;2023-09-12T09:58:56;5.78;;;3.28;;
13026;SDS011;6580;42.680;23.324;2023-09-12T10:01:43;2.70;;;2.50;;
13026;SDS011;6580;42.680;23.324;2023-09-12T10:04:29;4.65;;;2.47;;
13026;SDS011;6580;42.680;23.324;2023-09-12T10:07:18;3.30;;;2.35;;
13026;SDS011;6580;42.680;23.324;2023-09-12T10:10:04;3.38;;;3.05;;
13026;SDS011;6580;42.680;23.324;2023-09-12T10:12:54;5.47;;;4.00;;
13026;SDS011;6580;42.680;23.324;2023-09-12T10:15:42;2.72;;;2.53;;
13026;SDS011;6580;42.680;23.324;2023-09-12T10:18:31;5.38;;;4.35;;
13026;SDS011;6580;42.680;23.324;2023-09-12T10:21:40;3.15;;;2.65;;
13026;SDS011;6580;42.680;23.324;2023-09-12T10:24:33;4.85;;;2.45;;
13026;SDS011;6580;42.680;23.324;2023-09-12T10:27:20;4.13;;;3.10;;
13026;SDS011;6580;42.680;23.324;2023-09-12T10:30:09;6.47;;;3.20;;
13026;SDS011;6580;42.680;23.324;2023-09-12T10:32:56;4.50;;;2.70;;
13026;SDS011;6580;42.680;23.324;2023-09-12T10:35:45;3.55;;;3.25;;
13026;SDS011;6580;42.680;23.324;2023-09-12T10:38:35;2.92;;;2.50;;
13026;SDS011;6580;42.680;23.324;2023-09-12T10:41:28;4.55;;;2.85;;
13026;SDS011;6580;42.680;23.324;2023-09-12T10:44:16;4.18;;;2.85;;
13026;SDS011;6580;42.680;23.324;2023-09-12T10:47:02;3.83;;;2.88;;
13026;SDS011;6580;42.680;23.324;2023-09-12T10:49:49;4.63;;;3.20;;
13026;SDS011;6580;42.680;23.324;2023-09-12T10:52:35;3.88;;;2.75;;
13026;SDS011;6580;42.680;23.324;2023-09-12T10:55:26;3.28;;;2.95;;
13026;SDS011;6580;42.680;23.324;2023-09-12T10:58:16;4.57;;;3.30;;
13026;SDS011;6580;42.680;23.324;2023-09-12T11:07:29;4.63;;;3.70;;
13026;SDS011;6580;42.680;23.324;2023-09-12T11:10:17;4.80;;;2.83;;
13026;SDS011;6580;42.680;23.324;2023-09-12T11:13:03;5.35;;;3.00;;
13026;SDS011;6580;42.680;23.324;2023-09-12T11:19:11;4.35;;;3.38;;
13026;SDS011;6580;42.680;23.324;2023-09-12T11:21:59;3.85;;;2.95;;
13026;SDS011;6580;42.680;23.324;2023-09-12T11:24:47;6.30;;;5.68;;
13026;SDS011;6580;42.680;23.324;2023-09-12T11:27:44;10.77;;;6.45;;
13026;SDS011;6580;42.680;23.324;2023-09-12T11:30:31;4.18;;;3.78;;
13026;SDS011;6580;42.680;23.324;2023-09-12T11:33:22;3.42;;;2.95;;
13026;SDS011;6580;42.680;23.324;2023-09-12T11:36:12;5.57;;;3.35;;
13026;SDS011;6580;42.680;23.324;2023-09-12T11:39:01;3.58;;;3.28;;
13026;SDS011;6580;42.680;23.324;2023-09-12T11:41:47;3.42;;;3.13;;
13026;SDS011;6580;42.680;23.324;2023-09-12T11:44:33;4.85;;;4.03;;
13026;SDS011;6580;42.680;23.324;2023-09-12T11:47:28;3.50;;;3.20;;
13026;SDS011;6580;42.680;23.324;2023-09-12T11:50:29;3.83;;;3.35;;
13026;SDS011;6580;42.680;23.324;2023-09-12T11:53:18;5.97;;;4.65;;
13026;SDS011;6580;42.680;23.324;2023-09-12T11:56:05;5.20;;;4.18;;
13026;SDS011;6580;42.680;23.324;2023-09-12T11:58:51;6.22;;;5.07;;
13026;SDS011;6580;42.680;23.324;2023-09-12T12:01:38;5.82;;;3.80;;
13026;SDS011;6580;42.680;23.324;2023-09-12T12:04:24;4.30;;;3.20;;
13026;SDS011;6580;42.680;23.324;2023-09-12T12:07:13;4.20;;;3.70;;
13026;SDS011;6580;42.680;23.324;2023-09-12T12:09:58;5.10;;;3.97;;
13026;SDS011;6580;42.680;23.324;2023-09-12T12:12:48;4.32;;;3.20;;
13026;SDS011;6580;42.680;23.324;2023-09-12T12:15:38;5.03;;;3.35;;
13026;SDS011;6580;42.680;23.324;2023-09-12T12:18:24;3.42;;;2.72;;
13026;SDS011;6580;42.680;23.324;2023-09-12T12:21:11;3.85;;;3.15;;
13026;SDS011;6580;42.680;23.324;2023-09-12T12:24:01;3.40;;;2.70;;
13026;SDS011;6580;42.680;23.324;2023-09-12T12:26:47;3.80;;;3.47;;
13026;SDS011;6580;42.680;23.324;2023-09-12T12:29:34;3.17;;;2.88;;
13026;SDS011;6580;42.680;23.324;2023-09-12T12:32:23;5.00;;;2.90;;
13026;SDS011;6580;42.680;23.324;2023-09-12T12:35:09;4.95;;;2.95;;
13026;SDS011;6580;42.680;23.324;2023-09-12T12:38:01;7.65;;;3.67;;
13026;SDS011;6580;42.680;23.324;2023-09-12T12:40:49;3.08;;;2.80;;
13026;SDS011;6580;42.680;23.324;2023-09-12T12:43:35;3.30;;;2.50;;
13026;SDS011;6580;42.680;23.324;2023-09-12T12:46:28;3.38;;;3.08;;
13026;SDS011;6580;42.680;23.324;2023-09-12T12:49:14;3.17;;;2.88;;
13026;SDS011;6580;42.680;23.324;2023-09-12T12:51:59;3.22;;;2.92;;
13026;SDS011;6580;42.680;23.324;2023-09-12T12:54:47;4.07;;;2.92;;
13026;SDS011;6580;42.680;23.324;2023-09-12T12:57:37;5.00;;;3.20;;
13026;SDS011;6580;42.680;23.324;2023-09-12T13:00:25;3.17;;;2.88;;
13026;SDS011;6580;42.680;23.324;2023-09-12T13:03:11;7.28;;;3.70;;
13026;SDS011;6580;42.680;23.324;2023-09-12T13:05:57;3.28;;;3.03;;
13026;SDS011;6580;42.680;23.324;2023-09-12T13:08:44;4.38;;;3.75;;
13026;SDS011;6580;42.680;23.324;2023-09-12T13:11:31;4.28;;;3.28;;
13026;SDS011;6580;42.680;23.324;2023-09-12T13:14:24;3.30;;;3.00;;
13026;SDS011;6580;42.680;23.324;2023-09-12T13:17:14;4.32;;;3.17;;
13026;SDS011;6580;42.680;23.324;2023-09-12T13:20:00;3.80;;;3.20;;
13026;SDS011;6580;42.680;23.324;2023-09-12T13:22:46;4.05;;;3.67;;
13026;SDS011;6580;42.680;23.324;2023-09-12T13:25:34;4.38;;;3.97;;
13026;SDS011;6580;42.680;23.324;2023-09-12T13:28:20;4.25;;;3.78;;
13026;SDS011;6580;42.680;23.324;2023-09-12T13:31:09;4.55;;;3.53;;
13026;SDS011;6580;42.680;23.324;2023-09-12T13:33:55;5.22;;;3.30;;
13026;SDS011;6580;42.680;23.324;2023-09-12T13:36:43;3.67;;;3.38;;
13026;SDS011;6580;42.680;23.324;2023-09-12T13:39:30;5.72;;;3.55;;
13026;SDS011;6580;42.680;23.324;2023-09-12T13:42:15;4.03;;;3.40;;
13026;SDS011;6580;42.680;23.324;2023-09-12T13:45:03;3.92;;;3.22;;
13026;SDS011;6580;42.680;23.324;2023-09-12T13:47:50;3.90;;;3.38;;
13026;SDS011;6580;42.680;23.324;2023-09-12T13:50:36;4.32;;;3.45;;
13026;SDS011;6580;42.680;23.324;2023-09-12T13:53:22;4.00;;;3.45;;
13026;SDS011;6580;42.680;23.324;2023-09-12T13:56:07;3.40;;;2.80;;
13026;SDS011;6580;42.680;23.324;2023-09-12T13:58:53;4.57;;;3.10;;
13026;SDS011;6580;42.680;23.324;2023-09-12T14:01:39;6.13;;;3.40;;
13026;SDS011;6580;42.680;23.324;2023-09-12T14:04:27;4.93;;;3.20;;
13026;SDS011;6580;42.680;23.324;2023-09-12T14:07:12;4.38;;;2.90;;
13026;SDS011;6580;42.680;23.324;2023-09-12T14:09:59;4.15;;;3.20;;
13026;SDS011;6580;42.680;23.324;2023-09-12T14:12:45;6.20;;;3.20;;
13026;SDS011;6580;42.680;23.324;2023-09-12T14:15:31;6.95;;;4.00;;
13026;SDS011;6580;42.680;23.324;2023-09-12T14:18:16;4.63;;;3.33;;
13026;SDS011;6580;42.680;23.324;2023-09-12T14:21:06;3.63;;;3.10;;
13026;SDS011;6580;42.680;23.324;2023-09-12T14:23:52;5.30;;;3.28;;
13026;SDS011;6580;42.680;23.324;2023-09-12T14:26:42;3.13;;;2.80;;
13026;SDS011;6580;42.680;23.324;2023-09-12T14:29:27;9.27;;;3.67;;
13026;SDS011;6580;42.680;23.324;2023-09-12T14:32:13;5.80;;;3.30;;
13026;SDS011;6580;42.680;23.324;2023-09-12T14:34:59;4.38;;;3.50;;
13026;SDS011;6580;42.680;23.324;2023-09-12T14:37:51;4.18;;;3.15;;
13026;SDS011;6580;42.680;23.324;2023-09-12T14:40:36;4.10;;;2.75;;
13026;SDS011;6580;42.680;23.324;2023-09-12T14:43:23;5.35;;;3.30;;
13026;SDS011;6580;42.680;23.324;2023-09-12T14:46:11;5.30;;;3.22;;
13026;SDS011;6580;42.680;23.324;2023-09-12T14:48:57;4.60;;;2.92;;
13026;SDS011;6580;42.680;23.324;2023-09-12T14:51:42;3.40;;;2.90;;
13026;SDS011;6580;42.680;23.324;2023-09-12T14:54:32;3.10;;;2.72;;
13026;SDS011;6580;42.680;23.324;2023-09-12T14:57:17;4.05;;;3.30;;
13026;SDS011;6580;42.680;23.324;2023-09-12T15:00:06;3.78;;;3.20;;
13026;SDS011;6580;42.680;23.324;2023-09-12T15:02:52;5.75;;;3.78;;
13026;SDS011;6580;42.680;23.324;2023-09-12T15:05:37;7.32;;;3.97;;
13026;SDS011;6580;42.680;23.324;2023-09-12T15:08:23;3.78;;;3.28;;
13026;SDS011;6580;42.680;23.324;2023-09-12T15:11:09;3.80;;;3.20;;
13026;SDS011;6580;42.680;23.324;2023-09-12T15:13:55;7.22;;;4.70;;
13026;SDS011;6580;42.680;23.324;2023-09-12T15:16:42;6.45;;;3.28;;
13026;SDS011;6580;42.680;23.324;2023-09-12T15:19:29;3.75;;;3.30;;
13026;SDS011;6580;42.680;23.324;2023-09-12T15:22:15;4.75;;;2.80;;
13026;SDS011;6580;42.680;23.324;2023-09-12T15:25:01;5.20;;;3.20;;
13026;SDS011;6580;42.680;23.324;2023-09-12T15:27:48;3.92;;;2.88;;
13026;SDS011;6580;42.680;23.324;2023-09-12T15:30:34;4.57;;;2.53;;
13026;SDS011;6580;42.680;23.324;2023-09-12T15:33:21;4.93;;;4.00;;
13026;SDS011;6580;42.680;23.324;2023-09-12T15:36:07;6.90;;;4.88;;
13026;SDS011;6580;42.680;23.324;2023-09-12T15:38:52;4.63;;;3.63;;
13026;SDS011;6580;42.680;23.324;2023-09-12T15:41:38;4.82;;;4.35;;
13026;SDS011;6580;42.680;23.324;2023-09-12T15:44:25;6.35;;;3.60;;
13026;SDS011;6580;42.680;23.324;2023-09-12T15:47:11;4.30;;;3.13;;
13026;SDS011;6580;42.680;23.324;2023-09-12T15:49:57;3.85;;;3.55;;
13026;SDS011;6580;42.680;23.324;2023-09-12T15:52:42;4.47;;;3.28;;
13026;SDS011;6580;42.680;23.324;2023-09-12T15:55:28;6.38;;;4.40;;
13026;SDS011;6580;42.680;23.324;2023-09-12T15:58:15;6.68;;;4.70;;
13026;SDS011;6580;42.680;23.324;2023-09-12T16:01:02;8.32;;;5.43;;
13026;SDS011;6580;42.680;23.324;2023-09-12T16:03:48;9.90;;;5.60;;
13026;SDS011;6580;42.680;23.324;2023-09-12T16:06:33;7.53;;;5.03;;
13026;SDS011;6580;42.680;23.324;2023-09-12T16:09:19;6.28;;;5.57;;
13026;SDS011;6580;42.680;23.324;2023-09-12T16:12:05;8.40;;;6.47;;
13026;SDS011;6580;42.680;23.324;2023-09-12T16:14:54;6.38;;;5.25;;
13026;SDS011;6580;42.680;23.324;2023-09-12T16:17:42;7.60;;;5.43;;
13026;SDS011;6580;42.680;23.324;2023-09-12T16:20:28;6.72;;;6.07;;
13026;SDS011;6580;42.680;23.324;2023-09-12T16:23:14;7.47;;;5.68;;
13026;SDS011;6580;42.680;23.324;2023-09-12T16:26:02;8.98;;;5.68;;
13026;SDS011;6580;42.680;23.324;2023-09-12T16:28:50;10.68;;;5.35;;
13026;SDS011;6580;42.680;23.324;2023-09-12T16:31:37;6.63;;;4.38;;
13026;SDS011;6580;42.680;23.324;2023-09-12T16:34:24;9.00;;;4.15;;
13026;SDS011;6580;42.680;23.324;2023-09-12T16:37:10;9.48;;;4.32;;
13026;SDS011;6580;42.680;23.324;2023-09-12T16:39:55;6.35;;;4.30;;
13026;SDS011;6580;42.680;23.324;2023-09-12T16:42:41;9.15;;;4.75;;
13026;SDS011;6580;42.680;23.324;2023-09-12T16:45:27;11.48;;;4.63;;
13026;SDS011;6580;42.680;23.324;2023-09-12T16:48:12;9.20;;;4.88;;
13026;SDS011;6580;42.680;23.324;2023-09-12T16:50:59;6.03;;;5.00;;
13026;SDS011;6580;42.680;23.324;2023-09-12T16:53:45;8.95;;;5.22;;
13026;SDS011;6580;42.680;23.324;2023-09-12T16:56:30;7.70;;;4.90;;
13026;SDS011;6580;42.680;23.324;2023-09-12T16:59:16;7.75;;;5.47;;
13026;SDS011;6580;42.680;23.324;2023-09-12T17:02:01;8.57;;;4.55;;
13026;SDS011;6580;42.680;23.324;2023-09-12T17:04:47;6.47;;;4.28;;